createdAt,value
2022-10-01T00:01:38.227Z,3
2022-10-01T00:03:37.988Z,3
2022-10-01T00:05:38.095Z,3
2022-10-01T00:07:38.198Z,3
2022-10-01T00:11:38.391Z,3
2022-10-01T00:13:38.488Z,3
2022-10-01T00:15:38.569Z,3
2022-10-01T00:17:38.654Z,3
2022-10-01T00:19:38.751Z,3
2022-10-01T00:21:38.850Z,3
2022-10-01T00:25:39.059Z,3
2022-10-01T00:27:39.206Z,3
2022-10-01T00:29:39.261Z,3
2022-10-01T00:31:39.786Z,2
2022-10-01T00:33:39.440Z,3
2022-10-01T00:35:39.539Z,2
2022-10-01T00:37:39.637Z,3
2022-10-01T00:41:39.848Z,3
2022-10-01T00:43:39.935Z,3
2022-10-01T00:45:40.097Z,3
2022-10-01T00:49:40.195Z,3
2022-10-01T00:51:40.297Z,3
2022-10-01T00:53:40.384Z,3
2022-10-01T00:55:40.475Z,3
2022-10-01T00:57:40.560Z,3
2022-10-01T00:59:40.650Z,3
2022-10-01T01:03:40.814Z,3
2022-10-01T01:05:40.931Z,3
2022-10-01T01:07:40.993Z,3
2022-10-01T01:09:41.089Z,3
2022-10-01T01:15:41.376Z,3
2022-10-01T01:17:41.390Z,3
2022-10-01T01:19:41.477Z,3
2022-10-01T01:21:41.571Z,3
2022-10-01T01:23:41.658Z,3
2022-10-01T01:29:41.907Z,3
2022-10-01T01:31:41.995Z,3
2022-10-01T01:34:12.147Z,3
2022-10-01T01:36:12.255Z,3
2022-10-01T01:38:12.376Z,3
2022-10-01T01:40:12.487Z,3
2022-10-01T01:42:12.607Z,3
2022-10-01T01:50:13.047Z,3
2022-10-01T01:52:13.165Z,3
2022-10-01T01:54:13.274Z,3
2022-10-01T01:56:13.440Z,3
2022-10-01T01:58:13.505Z,3
2022-10-01T02:00:13.599Z,3
2022-10-01T02:02:13.849Z,3
2022-10-01T02:04:13.826Z,2
2022-10-01T02:06:13.939Z,3
2022-10-01T02:10:14.218Z,3
2022-10-01T02:14:14.350Z,2
2022-10-01T02:16:14.515Z,3
2022-10-01T02:18:14.563Z,2
2022-10-01T02:20:14.661Z,3
2022-10-01T02:26:14.979Z,3
2022-10-01T02:28:15.163Z,2
2022-10-01T02:30:15.163Z,3
2022-10-01T02:32:15.275Z,3
2022-10-01T02:34:18.264Z,2
2022-10-01T02:36:15.487Z,3
2022-10-01T02:38:15.601Z,2
2022-10-01T02:42:15.784Z,2
2022-10-01T02:44:15.897Z,2
2022-10-01T02:48:16.067Z,2
2022-10-01T02:50:16.166Z,2
2022-10-01T02:54:16.356Z,3
2022-10-01T02:56:16.460Z,2
2022-10-01T02:58:16.557Z,2
2022-10-01T03:00:16.653Z,3
2022-10-01T03:02:16.840Z,2
2022-10-01T03:04:16.857Z,3
2022-10-01T03:08:17.065Z,3
2022-10-01T03:10:17.153Z,3
2022-10-01T03:12:17.253Z,3
2022-10-01T03:14:17.358Z,3
2022-10-01T03:16:17.532Z,3
2022-10-01T03:22:17.835Z,3
2022-10-01T03:24:17.871Z,3
2022-10-01T03:26:17.976Z,2
2022-10-01T03:28:18.114Z,3
2022-10-01T03:30:18.183Z,3
2022-10-01T03:32:18.256Z,2
2022-10-01T03:34:18.366Z,3
2022-10-01T03:38:18.561Z,3
2022-10-01T03:40:18.653Z,3
2022-10-01T03:42:18.742Z,3
2022-10-01T03:44:18.854Z,2
2022-10-01T03:46:18.935Z,3
2022-10-01T03:48:19.003Z,3
2022-10-01T03:50:19.106Z,3
2022-10-01T03:52:19.200Z,3
2022-10-01T03:54:19.299Z,3
2022-10-01T03:56:19.395Z,3
2022-10-01T03:58:19.470Z,3
2022-10-01T04:00:19.554Z,3
2022-10-01T04:02:19.776Z,3
2022-10-01T04:04:19.719Z,2
2022-10-01T04:06:19.806Z,2
2022-10-01T04:08:24.129Z,3
2022-10-01T04:10:19.972Z,3
2022-10-01T04:14:20.154Z,3
2022-10-01T04:16:20.348Z,3
2022-10-01T04:18:20.312Z,3
2022-10-01T04:20:20.400Z,3
2022-10-01T04:22:20.536Z,3
2022-10-01T04:26:20.676Z,3
2022-10-01T04:28:20.823Z,3
2022-10-01T04:34:20.999Z,3
2022-10-01T04:36:21.090Z,3
2022-10-01T04:38:51.224Z,3
2022-10-01T04:42:51.524Z,3
2022-10-01T04:44:51.586Z,3
2022-10-01T04:46:51.810Z,3
2022-10-01T04:48:51.813Z,4
2022-10-01T04:50:51.938Z,3
2022-10-01T04:52:52.045Z,4
2022-10-01T04:54:52.180Z,3
2022-10-01T04:56:52.256Z,3
2022-10-01T04:58:52.381Z,4
2022-10-01T05:00:52.555Z,3
2022-10-01T05:02:52.630Z,3
2022-10-01T05:04:52.712Z,3
2022-10-01T05:06:52.788Z,3
2022-10-01T05:08:52.906Z,3
2022-10-01T05:10:53.023Z,4
2022-10-01T05:12:53.129Z,3
2022-10-01T05:14:53.231Z,3
2022-10-01T05:16:53.354Z,3
2022-10-01T05:18:53.463Z,3
2022-10-01T05:20:53.563Z,3
2022-10-01T05:22:53.670Z,3
2022-10-01T05:24:53.784Z,3
2022-10-01T05:26:53.908Z,3
2022-10-01T05:28:54.019Z,3
2022-10-01T05:30:54.125Z,3
2022-10-01T05:32:54.208Z,3
2022-10-01T05:34:54.318Z,3
2022-10-01T05:38:54.521Z,3
2022-10-01T05:46:54.962Z,3
2022-10-01T05:52:55.233Z,3
2022-10-01T05:58:55.564Z,3
2022-10-01T06:00:55.671Z,3
2022-10-01T06:02:56.043Z,3
2022-10-01T06:06:55.984Z,3
2022-10-01T06:08:56.092Z,3
2022-10-01T06:12:56.294Z,4
2022-10-01T06:14:56.399Z,3
2022-10-01T06:16:56.547Z,4
2022-10-01T06:20:56.662Z,5
2022-10-01T06:22:56.779Z,5
2022-10-01T06:24:56.882Z,5
2022-10-01T06:26:56.992Z,5
2022-10-01T06:28:57.090Z,5
2022-10-01T06:30:57.195Z,8
2022-10-01T06:32:57.275Z,10
2022-10-01T06:34:57.378Z,14
2022-10-01T06:36:57.483Z,20
2022-10-01T06:38:57.555Z,17
2022-10-01T06:40:57.665Z,21
2022-10-01T06:42:57.753Z,29
2022-10-01T06:44:57.835Z,37
2022-10-01T06:46:57.947Z,37
2022-10-01T06:48:58.023Z,50
2022-10-01T06:50:58.123Z,59
2022-10-01T06:52:58.197Z,94
2022-10-01T06:54:58.342Z,102
2022-10-01T06:56:58.409Z,65
2022-10-01T06:58:58.481Z,72
2022-10-01T07:00:58.676Z,49
2022-10-01T07:02:58.680Z,32
2022-10-01T07:04:58.838Z,37
2022-10-01T07:06:58.853Z,30
2022-10-01T07:08:58.941Z,35
2022-10-01T07:10:59.026Z,56
2022-10-01T07:12:59.117Z,55
2022-10-01T07:14:59.203Z,44
2022-10-01T07:16:59.301Z,32
2022-10-01T07:18:59.390Z,29
2022-10-01T07:20:59.468Z,24
2022-10-01T07:22:59.550Z,20
2022-10-01T07:24:59.634Z,14
2022-10-01T07:27:03.708Z,16
2022-10-01T07:28:59.816Z,13
2022-10-01T07:30:59.911Z,11
2022-10-01T07:32:59.984Z,9
2022-10-01T07:35:30.118Z,8
2022-10-01T07:37:30.224Z,6
2022-10-01T07:39:30.339Z,7
2022-10-01T07:41:30.457Z,6
2022-10-01T07:43:30.573Z,6
2022-10-01T07:45:30.771Z,6
2022-10-01T07:47:30.848Z,6
2022-10-01T07:49:30.913Z,6
2022-10-01T07:55:31.241Z,6
2022-10-01T07:57:31.360Z,7
2022-10-01T07:59:31.471Z,7
2022-10-01T08:01:32.126Z,8
2022-10-01T08:03:31.672Z,8
2022-10-01T08:05:31.781Z,8
2022-10-01T08:07:31.988Z,9
2022-10-01T08:09:32.007Z,8
2022-10-01T08:11:32.320Z,8
2022-10-01T08:13:32.211Z,8
2022-10-01T08:15:32.317Z,7
2022-10-01T08:17:32.423Z,7
2022-10-01T08:21:32.953Z,7
2022-10-01T08:23:32.739Z,7
2022-10-01T08:25:32.855Z,8
2022-10-01T08:27:32.953Z,25
2022-10-01T08:29:33.068Z,155
2022-10-01T08:31:33.532Z,125
2022-10-01T08:33:33.285Z,31
2022-10-01T08:35:33.406Z,24
2022-10-01T08:37:33.502Z,12
2022-10-01T08:39:33.612Z,10
2022-10-01T08:41:33.690Z,12
2022-10-01T08:43:33.807Z,14
2022-10-01T08:45:33.939Z,8
2022-10-01T08:47:33.998Z,27
2022-10-01T08:49:34.090Z,22
2022-10-01T08:51:34.527Z,23
2022-10-01T08:53:34.284Z,14
2022-10-01T08:55:34.383Z,12
2022-10-01T08:57:34.499Z,9
2022-10-01T08:59:34.588Z,10
2022-10-01T09:03:34.779Z,11
2022-10-01T09:05:34.878Z,35
2022-10-01T09:07:34.973Z,37
2022-10-01T09:09:35.051Z,31
2022-10-01T09:11:35.479Z,26
2022-10-01T09:13:35.293Z,28
2022-10-01T09:15:35.306Z,62
2022-10-01T09:17:35.402Z,73
2022-10-01T09:19:35.484Z,52
2022-10-01T09:21:35.876Z,73
2022-10-01T09:23:35.678Z,55
2022-10-01T09:25:35.773Z,44
2022-10-01T09:27:35.838Z,13
2022-10-01T09:29:35.949Z,8
2022-10-01T09:31:36.324Z,8
2022-10-01T09:33:36.173Z,6
2022-10-01T09:35:36.179Z,6
2022-10-01T09:37:36.273Z,7
2022-10-01T09:39:36.376Z,13
2022-10-01T09:41:36.748Z,9
2022-10-01T09:43:36.527Z,10
2022-10-01T09:45:36.658Z,11
2022-10-01T09:47:36.708Z,11
2022-10-01T09:49:36.780Z,17
2022-10-01T09:51:40.222Z,18
2022-10-01T09:53:36.947Z,19
2022-10-01T09:55:37.014Z,17
2022-10-01T09:57:37.118Z,17
2022-10-01T09:59:37.211Z,18
2022-10-01T10:01:37.638Z,18
2022-10-01T10:04:07.403Z,17
2022-10-01T10:06:07.513Z,18
2022-10-01T10:08:07.635Z,18
2022-10-01T10:10:07.748Z,18
2022-10-01T10:12:07.866Z,17
2022-10-01T10:14:07.974Z,17
2022-10-01T10:16:08.120Z,16
2022-10-01T10:18:08.184Z,16
2022-10-01T10:20:08.291Z,16
2022-10-01T10:22:08.408Z,16
2022-10-01T10:24:08.507Z,16
2022-10-01T10:26:08.610Z,16
2022-10-01T10:28:08.748Z,14
2022-10-01T10:30:08.865Z,14
2022-10-01T10:32:08.929Z,13
2022-10-01T10:34:08.986Z,14
2022-10-01T10:36:09.159Z,14
2022-10-01T10:38:09.210Z,15
2022-10-01T10:40:09.335Z,18
2022-10-01T10:42:09.414Z,14
2022-10-01T10:44:09.529Z,14
2022-10-01T10:46:09.694Z,14
2022-10-01T10:48:09.712Z,14
2022-10-01T10:50:09.813Z,14
2022-10-01T10:52:09.917Z,13
2022-10-01T10:54:10.010Z,16
2022-10-01T10:58:10.196Z,17
2022-10-01T11:00:10.302Z,16
2022-10-01T11:02:10.565Z,15
2022-10-01T11:04:10.522Z,15
2022-10-01T11:06:10.615Z,14
2022-10-01T11:08:15.446Z,13
2022-10-01T11:10:10.837Z,13
2022-10-01T11:12:10.914Z,14
2022-10-01T11:14:11.012Z,13
2022-10-01T11:16:11.149Z,19
2022-10-01T11:18:11.188Z,19
2022-10-01T11:20:11.280Z,13
2022-10-01T11:22:11.379Z,10
2022-10-01T11:24:11.465Z,8
2022-10-01T11:26:11.564Z,7
2022-10-01T11:28:11.698Z,9
2022-10-01T11:30:11.869Z,8
2022-10-01T11:32:11.822Z,8
2022-10-01T11:34:11.912Z,8
2022-10-01T11:36:11.994Z,8
2022-10-01T11:38:12.088Z,7
2022-10-01T11:40:12.183Z,9
2022-10-01T11:42:12.298Z,9
2022-10-01T11:44:12.355Z,10
2022-10-01T11:46:12.498Z,9
2022-10-01T11:48:12.501Z,9
2022-10-01T11:50:12.587Z,9
2022-10-01T11:52:12.682Z,9
2022-10-01T11:54:12.782Z,8
2022-10-01T11:56:12.871Z,9
2022-10-01T11:58:12.943Z,9
2022-10-01T12:00:13.043Z,10
2022-10-01T12:02:13.189Z,9
2022-10-01T12:04:13.224Z,10
2022-10-01T12:06:13.335Z,9
2022-10-01T12:08:13.409Z,8
2022-10-01T12:10:13.496Z,9
2022-10-01T12:12:13.590Z,7
2022-10-01T12:14:13.677Z,7
2022-10-01T12:16:13.795Z,9
2022-10-01T12:18:13.885Z,9
2022-10-01T12:20:43.982Z,9
2022-10-01T12:22:44.106Z,9
2022-10-01T12:24:44.199Z,8
2022-10-01T12:26:44.304Z,7
2022-10-01T12:28:49.147Z,8
2022-10-01T12:30:44.608Z,8
2022-10-01T12:32:44.623Z,8
2022-10-01T12:34:44.734Z,7
2022-10-01T12:36:44.857Z,7
2022-10-01T12:38:45.010Z,8
2022-10-01T12:40:45.054Z,7
2022-10-01T12:42:45.143Z,7
2022-10-01T12:46:45.442Z,7
2022-10-01T12:48:45.488Z,6
2022-10-01T12:50:45.574Z,7
2022-10-01T12:52:45.691Z,6
2022-10-01T12:54:45.758Z,7
2022-10-01T12:56:45.868Z,6
2022-10-01T12:58:45.976Z,6
2022-10-01T13:00:46.171Z,7
2022-10-01T13:02:46.170Z,7
2022-10-01T13:04:46.235Z,6
2022-10-01T13:06:46.346Z,7
2022-10-01T13:08:46.442Z,8
2022-10-01T13:10:46.556Z,8
2022-10-01T13:12:46.635Z,29
2022-10-01T13:14:46.727Z,31
2022-10-01T13:16:46.871Z,31
2022-10-01T13:18:46.946Z,27
2022-10-01T13:20:47.042Z,24
2022-10-01T13:22:47.146Z,27
2022-10-01T13:24:47.233Z,17
2022-10-01T13:26:47.336Z,14
2022-10-01T13:28:47.437Z,12
2022-10-01T13:30:47.526Z,9
2022-10-01T13:32:47.620Z,8
2022-10-01T13:34:47.723Z,18
2022-10-01T13:36:47.812Z,19
2022-10-01T13:38:47.924Z,19
2022-10-01T13:40:47.997Z,14
2022-10-01T13:42:48.089Z,11
2022-10-01T13:44:48.178Z,9
2022-10-01T13:48:48.379Z,9
2022-10-01T13:50:48.476Z,10
2022-10-01T13:52:48.554Z,9
2022-10-01T13:54:48.667Z,11
2022-10-01T13:56:48.735Z,11
2022-10-01T13:58:48.814Z,12
2022-10-01T14:00:48.961Z,12
2022-10-01T14:02:49.024Z,9
2022-10-01T14:04:49.096Z,11
2022-10-01T14:06:49.187Z,8
2022-10-01T14:08:49.269Z,8
2022-10-01T14:10:49.364Z,9
2022-10-01T14:12:49.472Z,10
2022-10-01T14:14:49.560Z,9
2022-10-01T14:16:49.628Z,15
2022-10-01T14:18:49.728Z,14
2022-10-01T14:20:49.851Z,13
2022-10-01T14:24:49.976Z,11
2022-10-01T14:26:50.058Z,11
2022-10-01T14:28:50.147Z,10
2022-10-01T14:30:50.260Z,11
2022-10-01T14:33:20.382Z,9
2022-10-01T14:35:20.487Z,9
2022-10-01T14:37:20.587Z,8
2022-10-01T14:39:20.697Z,8
2022-10-01T14:41:20.880Z,8
2022-10-01T14:43:20.937Z,8
2022-10-01T14:45:21.034Z,7
2022-10-01T14:47:21.161Z,8
2022-10-01T14:49:21.270Z,9
2022-10-01T14:51:21.375Z,8
2022-10-01T14:53:21.476Z,9
2022-10-01T14:55:21.572Z,8
2022-10-01T14:57:21.693Z,8
2022-10-01T14:59:21.788Z,7
2022-10-01T15:01:21.887Z,8
2022-10-01T15:03:22.014Z,7
2022-10-01T15:05:22.120Z,9
2022-10-01T15:07:22.198Z,10
2022-10-01T15:09:22.292Z,18
2022-10-01T15:11:22.412Z,18
2022-10-01T15:13:22.518Z,16
2022-10-01T15:15:22.629Z,15
2022-10-01T15:17:22.726Z,14
2022-10-01T15:19:22.825Z,17
2022-10-01T15:21:23.138Z,21
2022-10-01T15:23:23.078Z,18
2022-10-01T15:25:23.118Z,15
2022-10-01T15:27:23.219Z,16
2022-10-01T15:29:23.323Z,15
2022-10-01T15:31:23.448Z,15
2022-10-01T15:33:23.534Z,16
2022-10-01T15:35:23.613Z,22
2022-10-01T15:37:23.734Z,39
2022-10-01T15:39:23.823Z,14
2022-10-01T15:41:31.049Z,29
2022-10-01T15:43:24.065Z,17
2022-10-01T15:45:24.119Z,9
2022-10-01T15:47:24.225Z,14
2022-10-01T15:49:24.328Z,10
2022-10-01T15:51:24.415Z,9
2022-10-01T15:53:24.521Z,6
2022-10-01T15:55:24.627Z,7
2022-10-01T15:57:24.708Z,7
2022-10-01T15:59:24.819Z,5
2022-10-01T16:01:24.926Z,9
2022-10-01T16:03:25.006Z,7
2022-10-01T16:05:25.085Z,9
2022-10-01T16:07:25.188Z,6
2022-10-01T16:09:25.275Z,8
2022-10-01T16:11:25.366Z,8
2022-10-01T16:13:25.447Z,6
2022-10-01T16:15:25.544Z,6
2022-10-01T16:17:25.645Z,7
2022-10-01T16:19:25.717Z,7
2022-10-01T16:21:25.816Z,8
2022-10-01T16:23:25.912Z,10
2022-10-01T16:25:25.990Z,12
2022-10-01T16:27:26.086Z,11
2022-10-01T16:29:26.179Z,11
2022-10-01T16:31:26.340Z,9
2022-10-01T16:33:26.363Z,9
2022-10-01T16:35:26.452Z,9
2022-10-01T16:37:26.537Z,13
2022-10-01T16:39:26.628Z,7
2022-10-01T16:41:26.730Z,11
2022-10-01T16:43:26.810Z,9
2022-10-01T16:45:27.066Z,10
2022-10-01T16:47:26.961Z,9
2022-10-01T16:49:57.141Z,8
2022-10-01T16:51:57.226Z,8
2022-10-01T16:53:57.338Z,8
2022-10-01T16:55:57.469Z,8
2022-10-01T16:57:57.568Z,9
2022-10-01T16:59:57.686Z,11
2022-10-01T17:01:57.920Z,6
2022-10-01T17:05:58.064Z,7
2022-10-01T17:07:58.141Z,7
2022-10-01T17:09:58.253Z,7
2022-10-01T17:11:58.379Z,8
2022-10-01T17:13:58.493Z,10
2022-10-01T17:15:58.615Z,15
2022-10-01T17:17:58.697Z,16
2022-10-01T17:19:58.811Z,14
2022-10-01T17:21:58.910Z,16
2022-10-01T17:23:59.026Z,16
2022-10-01T17:25:59.192Z,17
2022-10-01T17:27:59.330Z,22
2022-10-01T17:29:59.350Z,35
2022-10-01T17:31:59.526Z,26
2022-10-01T17:33:59.577Z,19
2022-10-01T17:35:59.667Z,12
2022-10-01T17:37:59.775Z,9
2022-10-01T17:41:59.997Z,9
2022-10-01T17:44:00.105Z,9
2022-10-01T17:46:00.367Z,9
2022-10-01T17:48:00.286Z,9
2022-10-01T17:50:00.396Z,9
2022-10-01T17:52:00.529Z,8
2022-10-01T17:54:00.597Z,8
2022-10-01T17:56:00.703Z,8
2022-10-01T17:58:00.796Z,9
2022-10-01T18:00:00.909Z,9
2022-10-01T18:02:01.146Z,9
2022-10-01T18:04:01.118Z,9
2022-10-01T18:06:01.233Z,9
2022-10-01T18:08:01.334Z,9
2022-10-01T18:10:01.438Z,9
2022-10-01T18:12:01.536Z,9
2022-10-01T18:14:01.643Z,12
2022-10-01T18:16:01.867Z,8
2022-10-01T18:19:24.402Z,11
2022-10-01T18:20:01.996Z,17
2022-10-01T18:22:02.028Z,21
2022-10-01T18:24:04.838Z,15
2022-10-01T18:26:02.228Z,10
2022-10-01T18:28:02.480Z,11
2022-10-01T18:30:02.413Z,9
2022-10-01T18:32:02.618Z,11
2022-10-01T18:34:02.604Z,12
2022-10-01T18:36:02.666Z,11
2022-10-01T18:38:02.760Z,9
2022-10-01T18:40:02.862Z,7
2022-10-01T18:42:02.950Z,9
2022-10-01T18:44:03.038Z,6
2022-10-01T18:46:03.225Z,7
2022-10-01T18:48:03.223Z,5
2022-10-01T18:50:03.275Z,7
2022-10-01T18:52:03.367Z,9
2022-10-01T18:54:03.437Z,10
2022-10-01T18:56:03.527Z,11
2022-10-01T18:58:03.611Z,9
2022-10-01T19:00:03.688Z,9
2022-10-01T19:02:03.882Z,8
2022-10-01T19:06:03.934Z,10
2022-10-01T19:08:04.025Z,10
2022-10-01T19:10:04.111Z,10
2022-10-01T19:12:04.186Z,10
2022-10-01T19:14:34.328Z,9
2022-10-01T19:16:34.722Z,10
2022-10-01T19:18:34.556Z,9
2022-10-01T19:20:34.656Z,10
2022-10-01T19:22:34.760Z,11
2022-10-01T19:24:34.868Z,12
2022-10-01T19:26:35.204Z,11
2022-10-01T19:28:35.090Z,11
2022-10-01T19:30:35.194Z,11
2022-10-01T19:34:35.399Z,12
2022-10-01T19:38:35.636Z,13
2022-10-01T19:40:35.746Z,13
2022-10-01T19:42:35.837Z,13
2022-10-01T19:44:35.940Z,12
2022-10-01T19:46:36.478Z,11
2022-10-01T19:48:36.168Z,12
2022-10-01T19:50:36.279Z,12
2022-10-01T19:52:36.392Z,11
2022-10-01T19:54:36.564Z,11
2022-10-01T19:56:36.835Z,10
2022-10-01T19:58:36.763Z,10
2022-10-01T20:00:36.900Z,10
2022-10-01T20:04:37.045Z,8
2022-10-01T20:06:37.678Z,8
2022-10-01T20:08:37.257Z,6
2022-10-01T20:10:37.372Z,6
2022-10-01T20:12:37.475Z,5
2022-10-01T20:14:37.615Z,4
2022-10-01T20:16:38.100Z,5
2022-10-01T20:18:37.754Z,4
2022-10-01T20:20:37.866Z,4
2022-10-01T20:22:37.966Z,5
2022-10-01T20:24:38.065Z,4
2022-10-01T20:26:38.442Z,4
2022-10-01T20:28:38.258Z,4
2022-10-01T20:30:38.358Z,3
2022-10-01T20:32:38.462Z,3
2022-10-01T20:34:38.530Z,3
2022-10-01T20:36:38.814Z,3
2022-10-01T20:38:38.740Z,3
2022-10-01T20:40:38.813Z,2
2022-10-01T20:42:38.923Z,2
2022-10-01T20:44:38.996Z,2
2022-10-01T20:46:39.449Z,1
2022-10-01T20:48:39.196Z,2
2022-10-01T20:50:39.275Z,1
2022-10-01T20:52:39.374Z,1
2022-10-01T20:54:39.479Z,1
2022-10-01T20:56:39.557Z,1
2022-10-01T21:00:39.815Z,2
2022-10-01T21:02:39.851Z,4
2022-10-01T21:04:39.941Z,4
2022-10-01T21:06:40.020Z,3
2022-10-01T21:08:40.119Z,3
2022-10-01T21:10:40.185Z,2
2022-10-01T21:12:40.278Z,2
2022-10-01T21:14:40.371Z,1
2022-10-01T21:16:40.755Z,1
2022-10-01T21:22:40.732Z,1
2022-10-01T21:30:41.060Z,1
2022-10-01T21:32:41.167Z,1
2022-10-01T21:34:41.210Z,1
2022-10-01T21:36:41.302Z,1
2022-10-01T21:38:41.421Z,1
2022-10-01T21:41:11.536Z,1
2022-10-01T21:43:11.624Z,1
2022-10-01T21:45:11.726Z,1
2022-10-01T21:47:11.835Z,1
2022-10-01T21:49:11.951Z,1
2022-10-01T21:51:12.057Z,1
2022-10-01T21:53:12.174Z,1
2022-10-01T21:55:12.276Z,1
2022-10-01T21:57:12.386Z,1
2022-10-01T21:59:12.496Z,1
2022-10-01T22:03:12.714Z,1
2022-10-01T22:05:12.824Z,2
2022-10-01T22:07:12.944Z,1
2022-10-01T22:09:13.060Z,1
2022-10-01T22:11:13.165Z,1
2022-10-01T22:13:13.263Z,1
2022-10-01T22:21:13.687Z,1
2022-10-01T22:23:13.797Z,1
2022-10-01T22:29:14.127Z,1
2022-10-01T22:31:14.308Z,1
2022-10-01T22:33:14.325Z,1
2022-10-01T22:35:14.428Z,1
2022-10-01T22:37:14.494Z,1
2022-10-01T22:39:14.604Z,1
2022-10-01T22:41:14.759Z,1
2022-10-01T22:43:14.814Z,1
2022-10-01T22:45:14.913Z,1
2022-10-01T22:49:15.113Z,1
2022-10-01T22:51:15.213Z,1
2022-10-01T22:53:15.304Z,1
2022-10-01T22:55:15.410Z,1
2022-10-01T22:57:15.511Z,1
2022-10-01T22:59:15.607Z,1
2022-10-01T23:01:15.780Z,1
2022-10-01T23:03:15.784Z,1
2022-10-01T23:05:15.903Z,1
2022-10-01T23:07:15.979Z,2
2022-10-01T23:09:16.080Z,2
2022-10-01T23:11:16.186Z,2
2022-10-01T23:13:16.260Z,2
2022-10-01T23:15:16.352Z,1
2022-10-01T23:17:16.446Z,1
2022-10-01T23:19:16.533Z,1
2022-10-01T23:21:16.630Z,1
2022-10-01T23:25:16.833Z,1
2022-10-01T23:27:16.928Z,1
2022-10-01T23:29:17.023Z,1
2022-10-01T23:31:17.133Z,1
2022-10-01T23:35:17.295Z,1
2022-10-01T23:37:17.392Z,1
2022-10-01T23:39:17.465Z,1
2022-10-01T23:41:17.534Z,1
2022-10-01T23:45:17.711Z,1
2022-10-01T23:47:17.803Z,1
2022-10-01T23:51:17.984Z,1
2022-10-01T23:53:18.069Z,1
2022-10-01T23:55:18.159Z,1
